createdAt,value
2018-07-11T00:00:56.348Z,5.00
2018-07-11T00:03:36.069Z,5.60
2018-07-11T00:06:04.526Z,5.77
2018-07-11T00:08:32.884Z,5.40
2018-07-11T00:11:01.312Z,5.30
2018-07-11T00:13:30.018Z,5.53
2018-07-11T00:15:58.405Z,5.93
2018-07-11T00:18:26.817Z,6.33
2018-07-11T00:20:55.332Z,6.30
2018-07-11T00:23:23.807Z,5.80
2018-07-11T00:25:52.307Z,6.00
2018-07-11T00:28:20.892Z,6.50
2018-07-11T00:30:49.708Z,6.10
2018-07-11T00:33:18.225Z,6.63
2018-07-11T00:35:47.174Z,6.00
2018-07-11T00:38:15.792Z,5.80
2018-07-11T00:40:44.252Z,6.33
2018-07-11T00:43:12.684Z,5.77
2018-07-11T00:45:41.269Z,6.27
2018-07-11T00:48:09.709Z,6.00
2018-07-11T00:50:38.178Z,5.80
2018-07-11T00:53:07.196Z,6.70
2018-07-11T00:55:36.628Z,6.20
2018-07-11T00:59:16.183Z,5.80
2018-07-11T01:01:44.621Z,5.40
2018-07-11T01:04:13.009Z,5.73
2018-07-11T01:06:41.457Z,5.20
2018-07-11T01:09:09.944Z,5.70
2018-07-11T01:11:38.388Z,5.53
2018-07-11T01:14:06.890Z,6.17
2018-07-11T01:16:35.280Z,5.30
2018-07-11T01:19:06.658Z,5.23
2018-07-11T01:21:35.783Z,5.30
2018-07-11T01:24:04.281Z,5.40
2018-07-11T01:26:33.812Z,5.30
2018-07-11T01:29:02.443Z,5.30
2018-07-11T01:31:30.888Z,5.67
2018-07-11T01:33:59.860Z,5.63
2018-07-11T01:36:28.704Z,6.07
2018-07-11T01:38:57.857Z,5.33
2018-07-11T01:41:26.308Z,6.13
2018-07-11T01:43:54.796Z,5.70
2018-07-11T01:46:23.230Z,5.40
2018-07-11T01:48:51.645Z,6.00
2018-07-11T01:51:21.154Z,5.87
2018-07-11T01:53:49.622Z,5.93
2018-07-11T01:56:17.998Z,5.70
2018-07-11T01:58:47.403Z,5.70
2018-07-11T02:01:16.368Z,5.90
2018-07-11T02:03:44.853Z,6.10
2018-07-11T02:06:13.355Z,6.00
2018-07-11T02:08:41.848Z,5.60
2018-07-11T02:11:10.314Z,5.50
2018-07-11T02:13:38.780Z,5.90
2018-07-11T02:16:07.202Z,6.60
2018-07-11T02:18:36.016Z,5.97
2018-07-11T02:21:05.578Z,6.37
2018-07-11T02:23:35.600Z,5.83
2018-07-11T02:26:04.033Z,6.50
2018-07-11T02:28:32.731Z,6.30
2018-07-11T02:31:01.488Z,5.90
2018-07-11T02:33:29.897Z,6.90
2018-07-11T02:35:58.381Z,5.97
2018-07-11T02:38:26.852Z,6.80
2018-07-11T02:40:55.246Z,6.77
2018-07-11T02:43:23.606Z,6.10
2018-07-11T02:45:52.126Z,6.20
2018-07-11T02:48:20.585Z,6.63
2018-07-11T02:50:49.093Z,6.53
2018-07-11T02:53:22.188Z,6.40
2018-07-11T02:55:51.609Z,6.50
2018-07-11T02:58:20.020Z,6.57
2018-07-11T03:00:49.055Z,6.83
2018-07-11T03:03:17.758Z,7.03
2018-07-11T03:05:46.305Z,6.87
2018-07-11T03:08:15.772Z,6.83
2018-07-11T03:10:44.165Z,7.00
2018-07-11T03:13:12.589Z,6.67
2018-07-11T03:15:40.999Z,6.70
2018-07-11T03:18:09.451Z,6.53
2018-07-11T03:20:37.904Z,6.83
2018-07-11T03:23:06.424Z,7.20
2018-07-11T03:25:34.824Z,6.70
2018-07-11T03:28:03.235Z,6.80
2018-07-11T03:30:31.758Z,6.63
2018-07-11T03:33:00.244Z,7.33
2018-07-11T03:35:28.652Z,7.60
2018-07-11T03:37:57.019Z,6.93
2018-07-11T03:40:25.497Z,6.60
2018-07-11T03:42:53.932Z,6.90
2018-07-11T03:45:22.388Z,6.63
2018-07-11T03:47:50.814Z,6.60
2018-07-11T03:50:19.307Z,7.30
2018-07-11T03:52:47.784Z,7.60
2018-07-11T03:55:16.219Z,7.00
2018-07-11T03:57:44.610Z,7.07
2018-07-11T04:00:13.125Z,7.80
2018-07-11T04:02:41.524Z,7.70
2018-07-11T04:05:10.048Z,7.67
2018-07-11T04:07:38.582Z,7.40
2018-07-11T04:10:07.081Z,7.30
2018-07-11T04:12:35.552Z,7.10
2018-07-11T04:15:04.164Z,7.70
2018-07-11T04:17:32.580Z,7.67
2018-07-11T04:20:00.993Z,7.23
2018-07-11T04:22:29.369Z,7.40
2018-07-11T04:24:57.797Z,7.90
2018-07-11T04:27:25.900Z,8.23
2018-07-11T04:29:54.288Z,7.83
2018-07-11T04:32:22.802Z,8.03
2018-07-11T04:34:51.229Z,7.40
2018-07-11T04:37:19.713Z,7.80
2018-07-11T04:39:48.503Z,8.03
2018-07-11T04:42:16.920Z,7.97
2018-07-11T04:44:45.415Z,8.23
2018-07-11T04:47:14.005Z,8.10
2018-07-11T04:49:42.569Z,8.27
2018-07-11T04:52:11.493Z,7.97
2018-07-11T04:54:39.644Z,8.57
2018-07-11T04:57:08.162Z,8.13
2018-07-11T04:59:36.568Z,8.93
2018-07-11T05:02:05.001Z,8.47
2018-07-11T05:04:33.444Z,8.63
2018-07-11T05:07:11.653Z,8.90
2018-07-11T05:09:40.142Z,9.37
2018-07-11T05:12:08.677Z,9.70
2018-07-11T05:14:37.111Z,10.07
2018-07-11T05:17:05.658Z,13.70
2018-07-11T05:19:34.089Z,15.73
2018-07-11T05:22:02.496Z,24.63
2018-07-11T05:24:30.897Z,29.70
2018-07-11T05:26:59.302Z,24.47
2018-07-11T05:29:27.742Z,18.87
2018-07-11T05:31:56.166Z,14.10
2018-07-11T05:34:24.673Z,13.13
2018-07-11T05:36:53.069Z,11.70
2018-07-11T05:39:21.469Z,10.23
2018-07-11T05:41:49.833Z,9.60
2018-07-11T05:44:18.241Z,8.93
2018-07-11T05:46:46.665Z,8.47
2018-07-11T05:49:15.105Z,8.30
2018-07-11T05:51:43.530Z,8.67
2018-07-11T05:54:11.908Z,7.67
2018-07-11T05:56:40.296Z,7.20
2018-07-11T05:59:08.661Z,8.30
2018-07-11T06:01:37.248Z,7.67
2018-07-11T06:04:05.712Z,8.00
2018-07-11T06:06:34.137Z,7.83
2018-07-11T06:09:02.532Z,7.90
2018-07-11T06:11:30.917Z,8.07
2018-07-11T06:13:59.372Z,8.07
2018-07-11T06:16:27.802Z,8.00
2018-07-11T06:18:56.189Z,9.20
2018-07-11T06:21:25.766Z,8.50
2018-07-11T06:23:54.591Z,9.10
2018-07-11T06:26:23.080Z,8.37
2018-07-11T06:28:51.485Z,8.30
2018-07-11T06:31:19.969Z,9.00
2018-07-11T06:33:48.551Z,8.83
2018-07-11T06:36:16.934Z,8.70
2018-07-11T06:38:45.064Z,8.20
2018-07-11T06:41:13.730Z,9.03
2018-07-11T06:43:42.208Z,8.00
2018-07-11T06:46:10.637Z,8.37
2018-07-11T06:48:38.961Z,8.10
2018-07-11T06:51:07.412Z,7.57
2018-07-11T06:53:35.888Z,6.97
2018-07-11T06:56:04.438Z,7.77
2018-07-11T06:58:32.760Z,8.47
2018-07-11T07:01:01.314Z,8.10
2018-07-11T07:03:30.310Z,6.47
2018-07-11T07:05:58.727Z,7.90
2018-07-11T07:08:27.162Z,8.30
2018-07-11T07:10:55.624Z,6.90
2018-07-11T07:13:24.089Z,7.80
2018-07-11T07:15:52.466Z,8.00
2018-07-11T07:18:20.820Z,8.40
2018-07-11T07:20:49.466Z,7.30
2018-07-11T07:23:17.903Z,7.23
2018-07-11T07:25:46.377Z,6.30
2018-07-11T07:28:14.969Z,6.80
2018-07-11T07:30:43.458Z,6.37
2018-07-11T07:33:11.950Z,7.03
2018-07-11T07:35:40.323Z,6.60
2018-07-11T07:38:08.721Z,6.90
2018-07-11T07:40:37.269Z,5.87
2018-07-11T07:43:05.645Z,6.03
2018-07-11T07:45:34.248Z,5.80
2018-07-11T07:48:02.765Z,6.77
2018-07-11T07:50:31.270Z,7.30
2018-07-11T07:52:59.327Z,6.73
2018-07-11T07:55:27.778Z,6.40
2018-07-11T07:57:56.381Z,6.57
2018-07-11T08:00:24.903Z,6.87
2018-07-11T08:02:53.424Z,6.10
2018-07-11T08:05:21.940Z,6.27
2018-07-11T08:07:50.581Z,6.73
2018-07-11T08:10:19.051Z,7.53
2018-07-11T08:12:47.500Z,6.27
2018-07-11T08:15:15.590Z,6.10
2018-07-11T08:17:44.131Z,6.30
2018-07-11T08:20:12.557Z,6.93
2018-07-11T08:23:18.728Z,5.87
2018-07-11T08:25:59.799Z,6.70
2018-07-11T08:30:43.866Z,6.33
2018-07-11T08:36:28.168Z,6.07
2018-07-11T08:39:09.800Z,5.67
2018-07-11T08:42:19.925Z,5.40
2018-07-11T08:44:57.365Z,5.07
2018-07-11T08:48:15.762Z,5.80
2018-07-11T08:50:52.374Z,6.30
2018-07-11T08:54:03.300Z,5.90
2018-07-11T08:56:48.600Z,4.70
2018-07-11T08:59:32.876Z,5.87
2018-07-11T09:04:18.456Z,5.60
2018-07-11T09:06:54.969Z,5.63
2018-07-11T09:09:34.777Z,5.90
2018-07-11T09:14:19.777Z,6.03
2018-07-11T09:16:58.055Z,6.50
2018-07-11T09:19:43.588Z,5.70
2018-07-11T09:24:29.397Z,5.70
2018-07-11T09:26:57.767Z,5.07
2018-07-11T09:29:26.267Z,5.57
2018-07-11T09:31:54.874Z,5.70
2018-07-11T09:34:23.332Z,5.07
2018-07-11T09:36:51.830Z,5.10
2018-07-11T09:39:20.291Z,4.67
2018-07-11T09:41:48.736Z,3.70
2018-07-11T09:44:17.288Z,4.90
2018-07-11T09:46:45.859Z,4.87
2018-07-11T09:49:14.328Z,4.50
2018-07-11T09:51:42.811Z,4.80
2018-07-11T09:54:11.265Z,4.40
2018-07-11T09:56:39.836Z,4.50
2018-07-11T09:59:08.301Z,4.47
2018-07-11T10:01:36.761Z,5.47
2018-07-11T10:04:05.269Z,4.40
2018-07-11T10:06:33.746Z,4.47
2018-07-11T10:09:02.310Z,4.47
2018-07-11T10:11:30.780Z,4.60
2018-07-11T10:13:59.316Z,4.97
2018-07-11T10:16:27.780Z,4.57
2018-07-11T10:19:00.611Z,4.17
2018-07-11T10:21:29.843Z,3.80
2018-07-11T10:23:58.248Z,3.40
2018-07-11T10:26:27.202Z,4.03
2018-07-11T10:28:56.097Z,3.90
2018-07-11T10:31:25.277Z,4.10
2018-07-11T10:33:53.818Z,3.03
2018-07-11T10:36:22.249Z,3.83
2018-07-11T10:38:50.832Z,3.10
2018-07-11T10:41:19.328Z,2.97
2018-07-11T10:43:47.788Z,3.17
2018-07-11T10:46:16.179Z,3.20
2018-07-11T10:48:44.663Z,3.23
2018-07-11T10:51:13.117Z,2.90
2018-07-11T10:53:41.600Z,2.93
2018-07-11T10:56:09.986Z,2.90
2018-07-11T10:58:38.503Z,3.20
2018-07-11T11:01:06.618Z,3.13
2018-07-11T11:03:35.189Z,3.30
2018-07-11T11:06:03.758Z,3.07
2018-07-11T11:08:32.609Z,3.20
2018-07-11T11:11:01.001Z,3.00
2018-07-11T11:13:29.417Z,3.20
2018-07-11T11:15:57.872Z,3.60
2018-07-11T11:18:26.569Z,3.90
2018-07-11T11:20:56.141Z,3.80
2018-07-11T11:23:24.552Z,3.37
2018-07-11T11:25:53.049Z,3.70
2018-07-11T11:28:21.580Z,3.00
2018-07-11T11:30:50.050Z,3.10
2018-07-11T11:33:18.458Z,3.40
2018-07-11T11:35:47.044Z,3.37
2018-07-11T11:38:15.045Z,3.40
2018-07-11T11:40:43.644Z,3.40
2018-07-11T11:43:12.076Z,3.30
2018-07-11T11:45:40.527Z,3.60
2018-07-11T11:48:09.046Z,3.30
2018-07-11T11:50:37.530Z,3.37
2018-07-11T11:53:06.150Z,3.17
2018-07-11T11:55:34.553Z,3.60
2018-07-11T11:58:03.057Z,3.10
2018-07-11T12:00:31.513Z,2.90
2018-07-11T12:03:00.008Z,3.07
2018-07-11T12:05:28.478Z,3.03
2018-07-11T12:07:56.948Z,3.07
2018-07-11T12:10:25.523Z,3.10
2018-07-11T12:12:54.035Z,3.30
2018-07-11T12:15:22.537Z,2.80
2018-07-11T12:17:51.185Z,3.20
2018-07-11T12:20:19.720Z,2.77
2018-07-11T12:22:48.192Z,3.10
2018-07-11T12:25:16.701Z,2.70
2018-07-11T12:27:45.316Z,2.60
2018-07-11T12:30:13.734Z,2.10
2018-07-11T12:32:42.165Z,2.73
2018-07-11T12:35:10.665Z,2.50
2018-07-11T12:37:39.505Z,2.47
2018-07-11T12:40:07.976Z,2.40
2018-07-11T12:42:36.523Z,2.13
2018-07-11T12:45:05.064Z,2.10
2018-07-11T12:47:39.008Z,2.20
2018-07-11T12:50:07.516Z,2.20
2018-07-11T12:52:36.005Z,2.23
2018-07-11T12:55:04.200Z,2.00
2018-07-11T12:57:32.786Z,1.87
2018-07-11T13:00:01.326Z,1.90
2018-07-11T13:02:29.814Z,2.00
2018-07-11T13:04:58.329Z,1.63
2018-07-11T13:07:26.885Z,2.20
2018-07-11T13:09:55.398Z,2.00
2018-07-11T13:12:23.977Z,2.30
2018-07-11T13:14:52.432Z,2.37
2018-07-11T13:17:20.608Z,2.00
2018-07-11T13:19:49.032Z,2.10
2018-07-11T13:22:17.457Z,2.10
2018-07-11T13:24:45.873Z,1.70
2018-07-11T13:27:14.339Z,1.80
2018-07-11T13:29:42.836Z,1.80
2018-07-11T13:32:11.293Z,2.07
2018-07-11T13:34:39.786Z,2.00
2018-07-11T13:37:08.444Z,1.70
2018-07-11T13:39:37.053Z,1.60
2018-07-11T13:42:05.485Z,1.90
2018-07-11T13:44:33.898Z,2.20
2018-07-11T13:47:06.622Z,2.00
2018-07-11T13:49:35.041Z,2.10
2018-07-11T13:52:03.461Z,2.00
2018-07-11T13:54:31.936Z,1.87
2018-07-11T13:57:00.382Z,1.97
2018-07-11T13:59:28.927Z,2.00
2018-07-11T14:01:57.368Z,1.53
2018-07-11T14:04:25.878Z,1.50
2018-07-11T14:06:54.427Z,1.40
2018-07-11T14:09:22.869Z,1.70
2018-07-11T14:11:51.355Z,1.50
2018-07-11T14:14:19.806Z,1.90
2018-07-11T14:16:48.351Z,1.73
2018-07-11T14:19:16.901Z,1.80
2018-07-11T14:21:45.358Z,2.00
2018-07-11T14:24:14.585Z,2.30
2018-07-11T14:26:43.150Z,2.50
2018-07-11T14:29:11.688Z,2.50
2018-07-11T14:31:40.120Z,1.73
2018-07-11T14:34:09.463Z,2.10
2018-07-11T14:36:37.916Z,1.80
2018-07-11T14:39:07.887Z,2.13
2018-07-11T14:41:36.365Z,2.10
2018-07-11T14:44:04.785Z,1.90
2018-07-11T14:46:34.799Z,1.87
2018-07-11T14:49:03.812Z,2.00
2018-07-11T14:51:32.540Z,1.70
2018-07-11T14:54:00.788Z,1.80
2018-07-11T14:56:29.267Z,1.70
2018-07-11T14:58:58.981Z,1.73
2018-07-11T15:01:27.456Z,1.70
2018-07-11T15:03:56.489Z,1.73
2018-07-11T15:06:25.200Z,2.07
2018-07-11T15:08:55.035Z,1.90
2018-07-11T15:11:23.992Z,1.70
2018-07-11T15:13:53.116Z,2.10
2018-07-11T15:16:21.644Z,1.70
2018-07-11T15:18:50.840Z,2.10
2018-07-11T15:21:19.320Z,2.33
2018-07-11T15:23:47.837Z,1.97
2018-07-11T15:26:16.361Z,2.17
2018-07-11T15:28:44.867Z,2.40
2018-07-11T15:31:13.494Z,1.97
2018-07-11T15:33:42.965Z,2.30
2018-07-11T15:36:11.624Z,2.10
2018-07-11T15:38:40.189Z,2.40
2018-07-11T15:41:08.669Z,2.27
2018-07-11T15:43:37.176Z,2.40
2018-07-11T15:46:05.645Z,2.40
2018-07-11T15:48:34.133Z,2.40
2018-07-11T15:51:02.801Z,2.30
2018-07-11T15:53:31.206Z,2.67
2018-07-11T15:56:00.353Z,2.40
2018-07-11T15:58:31.103Z,2.33
2018-07-11T16:01:09.729Z,2.50
2018-07-11T16:03:43.933Z,2.10
2018-07-11T16:06:12.533Z,2.10
2018-07-11T16:08:48.257Z,2.50
2018-07-11T16:11:21.282Z,2.40
2018-07-11T16:13:49.854Z,2.60
2018-07-11T16:16:18.354Z,2.63
2018-07-11T16:18:47.016Z,2.77
2018-07-11T16:21:15.497Z,2.97
2018-07-11T16:23:44.109Z,2.67
2018-07-11T16:26:13.003Z,2.80
2018-07-11T16:28:41.466Z,2.33
2018-07-11T16:31:09.931Z,2.70
2018-07-11T16:33:38.584Z,2.27
2018-07-11T16:36:07.030Z,3.27
2018-07-11T16:38:35.566Z,2.80
2018-07-11T16:41:04.244Z,2.60
2018-07-11T16:43:33.402Z,2.70
2018-07-11T16:46:01.882Z,3.03
2018-07-11T16:48:30.580Z,2.30
2018-07-11T16:50:59.347Z,2.70
2018-07-11T16:53:27.856Z,2.80
2018-07-11T16:55:56.357Z,2.40
2018-07-11T16:58:29.829Z,2.47
2018-07-11T17:00:59.925Z,2.30
2018-07-11T17:03:29.329Z,2.40
2018-07-11T17:06:06.470Z,2.20
2018-07-11T17:08:37.547Z,2.70
2018-07-11T17:11:18.490Z,2.27
2018-07-11T17:13:56.288Z,2.67
2018-07-11T17:16:32.393Z,3.07
2018-07-11T17:19:04.837Z,2.50
2018-07-11T17:21:40.638Z,2.80
2018-07-11T17:24:09.759Z,2.40
2018-07-11T17:26:42.880Z,2.97
2018-07-11T17:29:23.740Z,2.70
2018-07-11T17:31:58.482Z,2.77
2018-07-11T17:34:26.945Z,2.60
2018-07-11T17:37:00.497Z,2.43
2018-07-11T17:39:45.514Z,2.90
2018-07-11T17:42:14.449Z,2.70
2018-07-11T17:44:48.752Z,2.80
2018-07-11T17:47:18.203Z,2.70
2018-07-11T17:49:53.422Z,3.00
2018-07-11T17:52:23.983Z,2.43
2018-07-11T17:55:11.781Z,2.47
2018-07-11T17:58:01.888Z,2.50
2018-07-11T18:00:39.369Z,2.60
2018-07-11T18:05:24.666Z,2.70
2018-07-11T18:07:53.440Z,2.37
2018-07-11T18:10:53.137Z,2.37
2018-07-11T18:13:42.852Z,2.70
2018-07-11T18:16:46.975Z,2.73
2018-07-11T18:20:26.531Z,2.57
2018-07-11T18:23:06.344Z,2.50
2018-07-11T18:27:18.908Z,2.23
2018-07-11T18:32:03.852Z,2.37
2018-07-11T18:34:42.066Z,2.57
2018-07-11T18:37:55.501Z,2.63
2018-07-11T18:40:43.391Z,2.17
2018-07-11T18:43:31.454Z,2.27
2018-07-11T18:46:12.154Z,1.90
2018-07-11T18:48:49.160Z,2.40
2018-07-11T18:51:30.547Z,2.37
2018-07-11T18:54:09.051Z,2.20
2018-07-11T18:56:49.226Z,2.80
2018-07-11T19:00:30.869Z,2.87
2018-07-11T19:03:13.788Z,2.33
2018-07-11T19:07:53.748Z,3.20
2018-07-11T19:10:33.727Z,2.73
2018-07-11T19:13:03.669Z,2.93
2018-07-11T19:15:43.420Z,2.73
2018-07-11T19:18:20.149Z,2.63
2018-07-11T19:21:07.590Z,2.70
2018-07-11T19:24:14.221Z,3.00
2018-07-11T19:30:40.927Z,3.40
2018-07-11T19:34:21.022Z,3.33
2018-07-11T19:36:58.685Z,2.70
2018-07-11T19:40:35.852Z,3.00
2018-07-11T19:43:08.407Z,2.77
2018-07-11T19:45:54.368Z,3.00
2018-07-11T19:49:30.890Z,3.03
2018-07-11T19:52:04.294Z,3.63
2018-07-11T19:55:18.209Z,3.10
2018-07-11T19:57:46.658Z,3.10
2018-07-11T20:00:15.158Z,3.43
2018-07-11T20:02:43.600Z,3.60
2018-07-11T20:05:12.113Z,3.50
2018-07-11T20:07:40.636Z,3.23
2018-07-11T20:10:09.099Z,3.57
2018-07-11T20:12:37.597Z,3.73
2018-07-11T20:15:06.190Z,3.07
2018-07-11T20:17:34.561Z,3.30
2018-07-11T20:20:03.049Z,3.53
2018-07-11T20:22:31.489Z,3.40
2018-07-11T20:24:59.931Z,3.60
2018-07-11T20:27:28.425Z,3.33
2018-07-11T20:29:56.874Z,3.57
2018-07-11T20:32:25.356Z,3.67
2018-07-11T20:34:53.771Z,4.77
2018-07-11T20:37:22.280Z,4.03
2018-07-11T20:39:50.856Z,3.63
2018-07-11T20:42:19.415Z,3.13
2018-07-11T20:44:47.886Z,3.77
2018-07-11T20:47:16.366Z,3.60
2018-07-11T20:49:44.792Z,3.90
2018-07-11T20:52:13.177Z,3.87
2018-07-11T20:54:41.604Z,3.73
2018-07-11T20:57:10.000Z,3.97
2018-07-11T21:00:50.133Z,3.70
2018-07-11T21:03:30.261Z,3.50
2018-07-11T21:06:10.665Z,3.70
2018-07-11T21:09:23.460Z,3.60
2018-07-11T21:12:10.903Z,3.60
2018-07-11T21:14:50.528Z,3.73
2018-07-11T21:18:35.032Z,3.60
2018-07-11T21:21:03.552Z,3.80
2018-07-11T21:23:32.196Z,3.80
2018-07-11T21:26:00.624Z,3.97
2018-07-11T21:28:29.099Z,3.93
2018-07-11T21:30:57.612Z,3.73
2018-07-11T21:33:26.100Z,3.37
2018-07-11T21:35:54.669Z,3.67
2018-07-11T21:38:23.084Z,3.80
2018-07-11T21:40:51.627Z,7.33
2018-07-11T21:43:20.131Z,4.63
2018-07-11T21:45:48.593Z,10.70
2018-07-11T21:48:17.098Z,5.03
2018-07-11T21:50:45.519Z,5.50
2018-07-11T21:53:13.973Z,19.93
2018-07-11T21:55:42.361Z,5.80
2018-07-11T21:58:10.840Z,4.60
2018-07-11T22:00:40.446Z,4.30
2018-07-11T22:03:10.008Z,4.30
2018-07-11T22:05:38.412Z,6.30
2018-07-11T22:08:08.061Z,15.33
2018-07-11T22:10:37.880Z,6.90
2018-07-11T22:13:06.760Z,4.90
2018-07-11T22:15:36.161Z,5.00
2018-07-11T22:18:16.564Z,5.43
2018-07-11T22:20:43.857Z,4.90
2018-07-11T22:23:11.162Z,5.00
2018-07-11T22:25:38.477Z,5.10
2018-07-11T22:28:05.765Z,4.80
2018-07-11T22:30:33.021Z,4.53
2018-07-11T22:33:00.399Z,4.67
2018-07-11T22:35:27.665Z,4.40
2018-07-11T22:37:54.961Z,4.50
2018-07-11T22:40:22.228Z,4.30
2018-07-11T22:42:49.550Z,4.20
2018-07-11T22:45:16.826Z,4.53
2018-07-11T22:47:44.089Z,4.80
2018-07-11T22:50:11.413Z,4.50
2018-07-11T22:52:38.773Z,4.27
2018-07-11T22:55:06.001Z,4.03
2018-07-11T22:57:33.268Z,4.33
2018-07-11T23:00:00.531Z,4.17
2018-07-11T23:02:27.830Z,4.20
2018-07-11T23:04:55.132Z,4.47
2018-07-11T23:07:22.416Z,4.73
2018-07-11T23:09:49.744Z,4.53
2018-07-11T23:12:16.993Z,4.50
2018-07-11T23:14:44.296Z,4.60
2018-07-11T23:17:11.564Z,4.90
2018-07-11T23:19:38.862Z,4.57
2018-07-11T23:22:06.203Z,4.80
2018-07-11T23:24:33.466Z,4.40
2018-07-11T23:27:00.778Z,4.60
2018-07-11T23:29:28.078Z,4.73
2018-07-11T23:31:55.372Z,4.57
2018-07-11T23:34:22.659Z,4.87
2018-07-11T23:36:50.017Z,4.93
2018-07-11T23:39:17.300Z,5.00
2018-07-11T23:41:44.569Z,4.63
2018-07-11T23:44:11.824Z,5.30
2018-07-11T23:46:39.087Z,4.70
2018-07-11T23:49:06.344Z,4.90
2018-07-11T23:51:33.630Z,5.07
2018-07-11T23:54:00.930Z,6.30
2018-07-11T23:56:28.213Z,5.30
2018-07-11T23:58:55.488Z,10.20
